sensor_id;sensor_type;location;lat;lon;timestamp;pressure;altitude;pressure_sealevel;temperature;humidity
15694;BME280;7947;48.834;9.132;2024-02-16T00:02:53;98021.81;;;10.98;80.22
15694;BME280;7947;48.834;9.132;2024-02-16T00:05:56;98013.81;;;10.93;80.71
15694;BME280;7947;48.834;9.132;2024-02-16T00:08:59;98014.34;;;10.95;80.52
15694;BME280;7947;48.834;9.132;2024-02-16T00:12:02;98014.34;;;10.95;81.03
15694;BME280;7947;48.834;9.132;2024-02-16T00:15:08;98018.13;;;10.94;81.50
15694;BME280;7947;48.834;9.132;2024-02-16T00:18:12;98013.78;;;10.98;81.32
15694;BME280;7947;48.834;9.132;2024-02-16T00:21:15;98026.66;;;11.01;81.61
15694;BME280;7947;48.834;9.132;2024-02-16T00:24:19;98016.69;;;11.06;80.97
15694;BME280;7947;48.834;9.132;2024-02-16T00:27:22;98011.06;;;11.03;80.66
15694;BME280;7947;48.834;9.132;2024-02-16T00:30:26;98012.06;;;11.12;79.97
15694;BME280;7947;48.834;9.132;2024-02-16T00:33:29;98012.28;;;11.20;81.42
15694;BME280;7947;48.834;9.132;2024-02-16T00:36:32;98005.06;;;11.16;80.70
15694;BME280;7947;48.834;9.132;2024-02-16T00:39:35;98012.31;;;11.15;79.68
15694;BME280;7947;48.834;9.132;2024-02-16T00:42:38;98009.44;;;11.07;79.49
15694;BME280;7947;48.834;9.132;2024-02-16T00:45:43;98004.66;;;10.99;79.39
15694;BME280;7947;48.834;9.132;2024-02-16T00:48:46;98009.03;;;10.89;79.86
15694;BME280;7947;48.834;9.132;2024-02-16T00:51:49;97999.38;;;10.88;79.77
15694;BME280;7947;48.834;9.132;2024-02-16T00:54:52;97994.44;;;11.01;80.10
15694;BME280;7947;48.834;9.132;2024-02-16T00:57:55;97992.81;;;11.05;80.22
15694;BME280;7947;48.834;9.132;2024-02-16T01:01:00;98006.69;;;11.12;80.32
15694;BME280;7947;48.834;9.132;2024-02-16T01:04:03;97997.31;;;11.09;80.16
15694;BME280;7947;48.834;9.132;2024-02-16T01:07:06;98005.88;;;11.11;80.70
15694;BME280;7947;48.834;9.132;2024-02-16T01:10:09;98004.84;;;11.07;80.58
15694;BME280;7947;48.834;9.132;2024-02-16T01:13:13;98008.06;;;11.09;81.05
15694;BME280;7947;48.834;9.132;2024-02-16T01:16:18;98013.72;;;11.08;80.70
15694;BME280;7947;48.834;9.132;2024-02-16T01:19:20;98009.44;;;11.07;81.23
15694;BME280;7947;48.834;9.132;2024-02-16T01:22:23;98009.72;;;11.05;81.64
15694;BME280;7947;48.834;9.132;2024-02-16T01:25:26;98005.19;;;11.01;81.30
15694;BME280;7947;48.834;9.132;2024-02-16T01:28:29;98011.03;;;11.08;81.07
15694;BME280;7947;48.834;9.132;2024-02-16T01:31:33;98006.75;;;11.07;81.63
15694;BME280;7947;48.834;9.132;2024-02-16T01:34:37;98001.91;;;11.09;81.60
15694;BME280;7947;48.834;9.132;2024-02-16T01:37:41;97996.78;;;11.07;82.17
15694;BME280;7947;48.834;9.132;2024-02-16T01:40:44;97998.94;;;11.10;81.92
15694;BME280;7947;48.834;9.132;2024-02-16T01:43:47;97994.91;;;11.13;82.17
15694;BME280;7947;48.834;9.132;2024-02-16T01:46:51;97993.25;;;11.17;82.40
15694;BME280;7947;48.834;9.132;2024-02-16T01:49:54;97992.09;;;11.23;82.32
15694;BME280;7947;48.834;9.132;2024-02-16T01:52:57;97999.38;;;11.22;82.01
15694;BME280;7947;48.834;9.132;2024-02-16T01:56:00;97996.13;;;11.25;82.10
15694;BME280;7947;48.834;9.132;2024-02-16T01:59:02;97992.59;;;11.30;81.83
15694;BME280;7947;48.834;9.132;2024-02-16T02:02:07;97993.63;;;11.34;82.07
15694;BME280;7947;48.834;9.132;2024-02-16T02:05:10;97986.34;;;11.34;81.58
15694;BME280;7947;48.834;9.132;2024-02-16T02:08:14;97982.31;;;11.37;82.02
15694;BME280;7947;48.834;9.132;2024-02-16T02:11:17;97973.97;;;11.38;81.68
15694;BME280;7947;48.834;9.132;2024-02-16T02:14:22;97973.72;;;11.40;81.94
15694;BME280;7947;48.834;9.132;2024-02-16T02:17:29;97977.97;;;11.41;80.91
15694;BME280;7947;48.834;9.132;2024-02-16T02:20:32;97980.50;;;11.32;81.60
15694;BME280;7947;48.834;9.132;2024-02-16T02:23:36;97976.44;;;11.35;81.29
15694;BME280;7947;48.834;9.132;2024-02-16T02:26:39;97972.06;;;11.44;82.37
15694;BME280;7947;48.834;9.132;2024-02-16T02:29:43;97970.22;;;11.39;82.53
15694;BME280;7947;48.834;9.132;2024-02-16T02:32:46;97976.41;;;11.40;83.63
15694;BME280;7947;48.834;9.132;2024-02-16T02:35:50;97966.19;;;11.42;84.06
15694;BME280;7947;48.834;9.132;2024-02-16T02:38:54;97972.84;;;11.44;84.67
15694;BME280;7947;48.834;9.132;2024-02-16T02:41:57;97965.66;;;11.40;84.80
15694;BME280;7947;48.834;9.132;2024-02-16T02:45:00;97956.81;;;11.34;85.23
15694;BME280;7947;48.834;9.132;2024-02-16T02:48:03;97958.22;;;11.32;83.99
15694;BME280;7947;48.834;9.132;2024-02-16T02:51:06;97959.28;;;11.31;84.44
15694;BME280;7947;48.834;9.132;2024-02-16T02:54:11;97953.38;;;11.34;83.58
15694;BME280;7947;48.834;9.132;2024-02-16T02:57:13;97958.13;;;11.42;83.52
15694;BME280;7947;48.834;9.132;2024-02-16T03:00:17;97952.50;;;11.38;83.47
15694;BME280;7947;48.834;9.132;2024-02-16T03:03:21;97944.22;;;11.35;83.30
15694;BME280;7947;48.834;9.132;2024-02-16T03:06:24;97946.38;;;11.33;83.83
15694;BME280;7947;48.834;9.132;2024-02-16T03:09:28;97945.34;;;11.29;83.27
15694;BME280;7947;48.834;9.132;2024-02-16T03:12:31;97937.56;;;11.32;83.20
15694;BME280;7947;48.834;9.132;2024-02-16T03:15:34;97940.25;;;11.27;83.18
15694;BME280;7947;48.834;9.132;2024-02-16T03:18:37;97938.41;;;11.23;83.39
15694;BME280;7947;48.834;9.132;2024-02-16T03:21:41;97936.75;;;11.32;82.81
15694;BME280;7947;48.834;9.132;2024-02-16T03:24:45;97934.06;;;11.32;82.65
15694;BME280;7947;48.834;9.132;2024-02-16T03:27:48;97947.81;;;11.25;83.17
15694;BME280;7947;48.834;9.132;2024-02-16T03:30:51;97945.13;;;11.25;83.30
15694;BME280;7947;48.834;9.132;2024-02-16T03:33:54;97948.53;;;11.31;83.05
15694;BME280;7947;48.834;9.132;2024-02-16T03:36:58;97950.53;;;11.20;83.26
15694;BME280;7947;48.834;9.132;2024-02-16T03:40:05;97950.19;;;11.27;82.74
15694;BME280;7947;48.834;9.132;2024-02-16T03:43:09;97957.78;;;11.20;82.36
15694;BME280;7947;48.834;9.132;2024-02-16T03:46:13;97963.69;;;11.22;81.64
15694;BME280;7947;48.834;9.132;2024-02-16T03:49:16;97961.41;;;11.05;81.17
15694;BME280;7947;48.834;9.132;2024-02-16T03:52:19;97957.94;;;11.05;82.11
15694;BME280;7947;48.834;9.132;2024-02-16T03:55:23;97954.75;;;10.98;81.57
15694;BME280;7947;48.834;9.132;2024-02-16T03:58:26;97955.31;;;10.95;82.20
15694;BME280;7947;48.834;9.132;2024-02-16T04:01:29;97961.06;;;10.83;82.72
15694;BME280;7947;48.834;9.132;2024-02-16T04:04:32;97964.03;;;10.76;82.23
15694;BME280;7947;48.834;9.132;2024-02-16T04:07:36;97966.81;;;10.66;83.45
15694;BME280;7947;48.834;9.132;2024-02-16T04:10:40;97968.34;;;10.77;83.50
15694;BME280;7947;48.834;9.132;2024-02-16T04:13:43;97969.38;;;10.81;83.45
15694;BME280;7947;48.834;9.132;2024-02-16T04:16:46;97961.06;;;10.83;83.50
15694;BME280;7947;48.834;9.132;2024-02-16T04:19:49;97960.16;;;10.93;83.71
15694;BME280;7947;48.834;9.132;2024-02-16T04:22:52;97971.72;;;10.93;84.27
15694;BME280;7947;48.834;9.132;2024-02-16T04:25:57;97966.34;;;10.93;84.42
15694;BME280;7947;48.834;9.132;2024-02-16T04:29:00;97970.31;;;10.96;84.36
15694;BME280;7947;48.834;9.132;2024-02-16T04:32:03;97973.50;;;11.03;83.84
15694;BME280;7947;48.834;9.132;2024-02-16T04:35:07;97983.13;;;11.09;82.74
15694;BME280;7947;48.834;9.132;2024-02-16T04:38:13;97977.66;;;11.19;81.58
15694;BME280;7947;48.834;9.132;2024-02-16T04:41:19;97975.00;;;11.14;81.32
15694;BME280;7947;48.834;9.132;2024-02-16T04:44:22;97975.06;;;11.09;81.48
15694;BME280;7947;48.834;9.132;2024-02-16T04:47:26;97984.47;;;11.06;81.08
15694;BME280;7947;48.834;9.132;2024-02-16T04:50:29;97969.13;;;11.12;82.58
15694;BME280;7947;48.834;9.132;2024-02-16T04:53:31;97980.97;;;11.11;81.75
15694;BME280;7947;48.834;9.132;2024-02-16T04:56:36;97978.75;;;11.18;81.55
15694;BME280;7947;48.834;9.132;2024-02-16T04:59:38;97979.78;;;11.22;80.32
15694;BME280;7947;48.834;9.132;2024-02-16T05:02:41;97977.09;;;11.22;79.95
15694;BME280;7947;48.834;9.132;2024-02-16T05:05:44;97990.50;;;11.22;80.11
15694;BME280;7947;48.834;9.132;2024-02-16T05:08:48;97985.66;;;11.24;80.09
15694;BME280;7947;48.834;9.132;2024-02-16T05:11:52;97983.78;;;11.24;79.52
15694;BME280;7947;48.834;9.132;2024-02-16T05:14:55;97986.13;;;11.31;80.02
15694;BME280;7947;48.834;9.132;2024-02-16T05:17:58;97988.50;;;11.37;80.05
15694;BME280;7947;48.834;9.132;2024-02-16T05:21:01;97993.13;;;11.32;80.33
15694;BME280;7947;48.834;9.132;2024-02-16T05:24:04;97987.16;;;11.35;80.69
15694;BME280;7947;48.834;9.132;2024-02-16T05:27:09;97992.38;;;11.26;79.83
15694;BME280;7947;48.834;9.132;2024-02-16T05:30:12;97998.84;;;11.20;79.84
15694;BME280;7947;48.834;9.132;2024-02-16T05:33:17;98002.59;;;11.24;80.39
15694;BME280;7947;48.834;9.132;2024-02-16T05:36:20;97999.00;;;11.34;80.72
15694;BME280;7947;48.834;9.132;2024-02-16T05:39:26;97993.13;;;11.32;80.70
15694;BME280;7947;48.834;9.132;2024-02-16T05:42:34;97995.22;;;11.35;80.29
15694;BME280;7947;48.834;9.132;2024-02-16T05:45:37;98003.28;;;11.35;79.99
15694;BME280;7947;48.834;9.132;2024-02-16T05:48:43;98001.41;;;11.35;79.82
15694;BME280;7947;48.834;9.132;2024-02-16T05:51:46;98008.19;;;11.28;80.00
15694;BME280;7947;48.834;9.132;2024-02-16T05:55:19;98007.19;;;11.19;80.65
15694;BME280;7947;48.834;9.132;2024-02-16T05:58:23;98007.44;;;11.17;80.63
15694;BME280;7947;48.834;9.132;2024-02-16T06:01:26;98018.03;;;11.04;80.89
15694;BME280;7947;48.834;9.132;2024-02-16T06:04:29;98018.88;;;10.99;81.08
15694;BME280;7947;48.834;9.132;2024-02-16T06:07:32;98014.06;;;10.96;81.30
15694;BME280;7947;48.834;9.132;2024-02-16T06:10:37;98016.78;;;10.91;81.33
15694;BME280;7947;48.834;9.132;2024-02-16T06:13:41;98022.88;;;11.02;81.80
15694;BME280;7947;48.834;9.132;2024-02-16T06:16:44;98036.28;;;11.07;81.49
15694;BME280;7947;48.834;9.132;2024-02-16T06:19:47;98036.34;;;10.97;81.03
15694;BME280;7947;48.834;9.132;2024-02-16T06:22:50;98039.88;;;10.87;81.66
15694;BME280;7947;48.834;9.132;2024-02-16T06:25:53;98037.72;;;10.89;82.23
15694;BME280;7947;48.834;9.132;2024-02-16T06:28:57;98035.59;;;10.86;82.20
15694;BME280;7947;48.834;9.132;2024-02-16T06:32:01;98033.25;;;10.74;82.53
15694;BME280;7947;48.834;9.132;2024-02-16T06:35:05;98044.22;;;10.83;81.73
15694;BME280;7947;48.834;9.132;2024-02-16T06:38:09;98054.16;;;10.77;81.42
15694;BME280;7947;48.834;9.132;2024-02-16T06:41:12;98059.31;;;10.69;81.98
15694;BME280;7947;48.834;9.132;2024-02-16T06:44:17;98063.28;;;10.76;82.20
15694;BME280;7947;48.834;9.132;2024-02-16T06:47:24;98063.56;;;10.80;81.72
15694;BME280;7947;48.834;9.132;2024-02-16T06:50:28;98066.78;;;10.77;81.42
15694;BME280;7947;48.834;9.132;2024-02-16T06:53:32;98065.19;;;10.71;82.03
15694;BME280;7947;48.834;9.132;2024-02-16T06:56:35;98067.81;;;10.81;81.48
15694;BME280;7947;48.834;9.132;2024-02-16T06:59:39;98075.09;;;10.75;81.26
15694;BME280;7947;48.834;9.132;2024-02-16T07:02:43;98078.34;;;10.67;81.72
15694;BME280;7947;48.834;9.132;2024-02-16T07:05:46;98092.06;;;10.61;81.58
15694;BME280;7947;48.834;9.132;2024-02-16T07:08:48;98091.28;;;10.60;81.99
15694;BME280;7947;48.834;9.132;2024-02-16T07:11:52;98090.66;;;10.73;81.61
15694;BME280;7947;48.834;9.132;2024-02-16T07:14:56;98096.81;;;10.79;81.85
15694;BME280;7947;48.834;9.132;2024-02-16T07:17:59;98098.91;;;10.82;81.80
15694;BME280;7947;48.834;9.132;2024-02-16T07:21:05;98097.56;;;10.84;82.18
15694;BME280;7947;48.834;9.132;2024-02-16T07:24:08;98098.16;;;10.76;82.34
15694;BME280;7947;48.834;9.132;2024-02-16T07:27:11;98098.69;;;10.78;82.27
15694;BME280;7947;48.834;9.132;2024-02-16T07:30:16;98103.25;;;10.78;82.39
15694;BME280;7947;48.834;9.132;2024-02-16T07:33:30;98105.91;;;10.83;82.79
15694;BME280;7947;48.834;9.132;2024-02-16T07:36:34;98106.97;;;10.87;82.05
15694;BME280;7947;48.834;9.132;2024-02-16T07:39:38;98114.47;;;10.85;82.16
15694;BME280;7947;48.834;9.132;2024-02-16T07:42:42;98109.94;;;10.85;81.76
15694;BME280;7947;48.834;9.132;2024-02-16T07:45:48;98106.91;;;10.97;81.29
15694;BME280;7947;48.834;9.132;2024-02-16T07:48:51;98114.97;;;10.92;81.11
15694;BME280;7947;48.834;9.132;2024-02-16T07:51:54;98109.94;;;10.85;80.83
15694;BME280;7947;48.834;9.132;2024-02-16T07:54:57;98113.06;;;10.98;81.01
15694;BME280;7947;48.834;9.132;2024-02-16T07:58:00;98112.53;;;10.96;80.98
15694;BME280;7947;48.834;9.132;2024-02-16T08:01:06;98116.81;;;10.97;80.80
15694;BME280;7947;48.834;9.132;2024-02-16T08:04:09;98116.81;;;10.97;81.03
15694;BME280;7947;48.834;9.132;2024-02-16T08:07:11;98114.97;;;10.97;80.88
15694;BME280;7947;48.834;9.132;2024-02-16T08:10:14;98120.00;;;11.04;80.94
15694;BME280;7947;48.834;9.132;2024-02-16T08:13:17;98120.47;;;11.16;81.37
15694;BME280;7947;48.834;9.132;2024-02-16T08:16:23;98119.06;;;11.28;80.86
15694;BME280;7947;48.834;9.132;2024-02-16T08:19:34;98121.56;;;11.48;80.07
15694;BME280;7947;48.834;9.132;2024-02-16T08:22:38;98124.38;;;11.72;79.85
15694;BME280;7947;48.834;9.132;2024-02-16T08:25:41;98126.63;;;11.89;78.63
15694;BME280;7947;48.834;9.132;2024-02-16T08:28:44;98126.44;;;12.09;78.03
15694;BME280;7947;48.834;9.132;2024-02-16T08:31:49;98117.88;;;12.30;76.39
15694;BME280;7947;48.834;9.132;2024-02-16T08:34:52;98120.63;;;12.49;74.95
15694;BME280;7947;48.834;9.132;2024-02-16T08:37:57;98125.31;;;12.62;73.96
15694;BME280;7947;48.834;9.132;2024-02-16T08:41:00;98123.59;;;12.71;73.23
15694;BME280;7947;48.834;9.132;2024-02-16T08:44:05;98124.53;;;12.80;72.94
15694;BME280;7947;48.834;9.132;2024-02-16T08:47:12;98121.66;;;12.95;72.45
15694;BME280;7947;48.834;9.132;2024-02-16T08:50:15;98121.75;;;13.09;71.90
15694;BME280;7947;48.834;9.132;2024-02-16T08:53:18;98134.53;;;13.22;68.73
15694;BME280;7947;48.834;9.132;2024-02-16T08:56:21;98122.50;;;13.33;67.58
15694;BME280;7947;48.834;9.132;2024-02-16T08:59:24;98131.00;;;13.40;66.94
15694;BME280;7947;48.834;9.132;2024-02-16T09:02:29;98131.34;;;13.52;67.11
15694;BME280;7947;48.834;9.132;2024-02-16T09:05:32;98133.91;;;13.62;67.02
15694;BME280;7947;48.834;9.132;2024-02-16T09:08:35;98139.13;;;13.72;65.74
15694;BME280;7947;48.834;9.132;2024-02-16T09:11:39;98132.16;;;13.85;65.85
15694;BME280;7947;48.834;9.132;2024-02-16T09:14:42;98140.69;;;14.05;65.33
15694;BME280;7947;48.834;9.132;2024-02-16T09:17:46;98139.34;;;14.21;65.91
15694;BME280;7947;48.834;9.132;2024-02-16T09:20:49;98126.78;;;14.30;66.16
15694;BME280;7947;48.834;9.132;2024-02-16T09:23:52;98120.00;;;14.46;67.27
15694;BME280;7947;48.834;9.132;2024-02-16T09:26:55;98123.53;;;14.61;65.92
15694;BME280;7947;48.834;9.132;2024-02-16T09:29:58;98133.19;;;14.75;64.36
15694;BME280;7947;48.834;9.132;2024-02-16T09:33:05;98134.28;;;15.01;61.19
15694;BME280;7947;48.834;9.132;2024-02-16T09:36:09;98143.34;;;15.19;60.03
15694;BME280;7947;48.834;9.132;2024-02-16T09:39:12;98150.13;;;15.30;59.20
15694;BME280;7947;48.834;9.132;2024-02-16T09:42:15;98142.38;;;15.37;60.60
15694;BME280;7947;48.834;9.132;2024-02-16T09:45:19;98156.63;;;15.43;59.11
15694;BME280;7947;48.834;9.132;2024-02-16T09:48:26;98156.81;;;15.46;59.64
15694;BME280;7947;48.834;9.132;2024-02-16T09:51:30;98165.47;;;15.57;59.61
15694;BME280;7947;48.834;9.132;2024-02-16T09:54:34;98167.94;;;15.67;59.65
15694;BME280;7947;48.834;9.132;2024-02-16T09:57:37;98170.88;;;16.01;58.70
15694;BME280;7947;48.834;9.132;2024-02-16T10:00:40;98167.38;;;16.22;57.97
15694;BME280;7947;48.834;9.132;2024-02-16T10:03:45;98168.25;;;16.40;58.47
15694;BME280;7947;48.834;9.132;2024-02-16T10:06:48;98173.00;;;16.57;56.89
15694;BME280;7947;48.834;9.132;2024-02-16T10:09:51;98171.97;;;16.83;57.10
15694;BME280;7947;48.834;9.132;2024-02-16T10:13:01;98176.88;;;17.38;55.94
15694;BME280;7947;48.834;9.132;2024-02-16T10:16:06;98175.97;;;17.76;53.53
15694;BME280;7947;48.834;9.132;2024-02-16T10:19:12;98176.69;;;18.28;52.05
15694;BME280;7947;48.834;9.132;2024-02-16T10:22:19;98172.75;;;18.72;52.08
15694;BME280;7947;48.834;9.132;2024-02-16T10:25:24;98187.06;;;18.89;50.17
15694;BME280;7947;48.834;9.132;2024-02-16T10:28:30;98176.78;;;18.95;50.57
15694;BME280;7947;48.834;9.132;2024-02-16T10:31:33;98191.03;;;18.92;50.59
15694;BME280;7947;48.834;9.132;2024-02-16T10:34:38;98183.59;;;18.80;48.71
15694;BME280;7947;48.834;9.132;2024-02-16T10:37:44;98187.19;;;18.64;49.29
15694;BME280;7947;48.834;9.132;2024-02-16T10:40:48;98187.19;;;18.55;49.47
15694;BME280;7947;48.834;9.132;2024-02-16T10:43:54;98192.31;;;18.40;50.43
15694;BME280;7947;48.834;9.132;2024-02-16T10:46:56;98194.75;;;18.24;50.44
15694;BME280;7947;48.834;9.132;2024-02-16T10:50:02;98199.41;;;18.07;51.57
15694;BME280;7947;48.834;9.132;2024-02-16T10:53:13;98194.81;;;17.90;51.59
15694;BME280;7947;48.834;9.132;2024-02-16T10:56:16;98203.09;;;17.85;50.41
15694;BME280;7947;48.834;9.132;2024-02-16T10:59:19;98213.63;;;17.69;51.69
15694;BME280;7947;48.834;9.132;2024-02-16T11:02:22;98207.41;;;17.60;52.72
15694;BME280;7947;48.834;9.132;2024-02-16T11:05:33;98207.22;;;17.48;53.50
15694;BME280;7947;48.834;9.132;2024-02-16T11:08:38;98206.94;;;17.50;53.69
15694;BME280;7947;48.834;9.132;2024-02-16T11:11:51;98202.25;;;17.42;53.58
15694;BME280;7947;48.834;9.132;2024-02-16T11:14:56;98205.59;;;17.39;54.16
15694;BME280;7947;48.834;9.132;2024-02-16T11:18:00;98196.50;;;17.43;52.87
15694;BME280;7947;48.834;9.132;2024-02-16T11:21:05;98196.84;;;17.50;53.18
15694;BME280;7947;48.834;9.132;2024-02-16T11:24:13;98194.50;;;17.57;53.16
15694;BME280;7947;48.834;9.132;2024-02-16T11:27:16;98193.22;;;17.63;53.15
15694;BME280;7947;48.834;9.132;2024-02-16T11:30:22;98195.13;;;17.63;52.90
15694;BME280;7947;48.834;9.132;2024-02-16T11:33:25;98194.50;;;17.57;53.03
15694;BME280;7947;48.834;9.132;2024-02-16T11:36:30;98196.22;;;17.62;53.17
15694;BME280;7947;48.834;9.132;2024-02-16T11:39:35;98190.81;;;17.62;53.84
15694;BME280;7947;48.834;9.132;2024-02-16T11:42:39;98190.50;;;17.63;54.10
15694;BME280;7947;48.834;9.132;2024-02-16T11:45:42;98187.78;;;17.63;55.03
15694;BME280;7947;48.834;9.132;2024-02-16T11:48:45;98194.47;;;17.66;55.34
15694;BME280;7947;48.834;9.132;2024-02-16T11:51:51;98199.41;;;17.64;55.15
15694;BME280;7947;48.834;9.132;2024-02-16T11:54:54;98193.06;;;17.68;54.09
15694;BME280;7947;48.834;9.132;2024-02-16T11:58:01;98187.63;;;17.68;54.21
15694;BME280;7947;48.834;9.132;2024-02-16T12:01:10;98187.31;;;17.70;53.59
15694;BME280;7947;48.834;9.132;2024-02-16T12:04:20;98196.56;;;17.69;54.91
15694;BME280;7947;48.834;9.132;2024-02-16T12:07:25;98195.44;;;17.70;56.14
15694;BME280;7947;48.834;9.132;2024-02-16T12:10:29;98191.16;;;17.69;55.28
15694;BME280;7947;48.834;9.132;2024-02-16T12:13:31;98186.81;;;17.68;54.43
15694;BME280;7947;48.834;9.132;2024-02-16T12:16:34;98197.03;;;17.71;54.09
15694;BME280;7947;48.834;9.132;2024-02-16T12:19:43;98198.16;;;17.70;54.98
15694;BME280;7947;48.834;9.132;2024-02-16T12:22:48;98191.44;;;17.67;55.14
15694;BME280;7947;48.834;9.132;2024-02-16T12:25:50;98194.97;;;17.76;55.77
15694;BME280;7947;48.834;9.132;2024-02-16T12:28:54;98204.53;;;17.65;57.13
15694;BME280;7947;48.834;9.132;2024-02-16T12:31:56;98202.16;;;17.55;57.85
15694;BME280;7947;48.834;9.132;2024-02-16T12:34:59;98200.69;;;17.49;57.61
15694;BME280;7947;48.834;9.132;2024-02-16T12:38:04;98199.22;;;17.43;58.90
15694;BME280;7947;48.834;9.132;2024-02-16T12:41:07;98207.81;;;17.37;59.42
15694;BME280;7947;48.834;9.132;2024-02-16T12:44:12;98204.94;;;17.33;58.75
15694;BME280;7947;48.834;9.132;2024-02-16T12:47:16;98206.69;;;17.29;59.50
15694;BME280;7947;48.834;9.132;2024-02-16T12:50:20;98210.69;;;17.32;58.37
15694;BME280;7947;48.834;9.132;2024-02-16T12:53:26;98208.47;;;17.34;59.32
15694;BME280;7947;48.834;9.132;2024-02-16T12:56:32;98210.69;;;17.40;60.02
15694;BME280;7947;48.834;9.132;2024-02-16T12:59:37;98215.47;;;17.35;60.58
15694;BME280;7947;48.834;9.132;2024-02-16T13:02:42;98202.72;;;17.35;60.56
15694;BME280;7947;48.834;9.132;2024-02-16T13:05:48;98203.19;;;17.37;61.62
15694;BME280;7947;48.834;9.132;2024-02-16T13:08:53;98204.47;;;17.40;60.38
15694;BME280;7947;48.834;9.132;2024-02-16T13:11:57;98206.88;;;17.41;60.63
15694;BME280;7947;48.834;9.132;2024-02-16T13:15:01;98201.59;;;17.45;61.58
15694;BME280;7947;48.834;9.132;2024-02-16T13:18:24;98207.09;;;17.53;62.13
15694;BME280;7947;48.834;9.132;2024-02-16T13:21:29;98203.59;;;17.61;62.44
15694;BME280;7947;48.834;9.132;2024-02-16T13:24:35;98206.63;;;17.68;61.53
15694;BME280;7947;48.834;9.132;2024-02-16T13:27:41;98206.44;;;17.73;61.44
15694;BME280;7947;48.834;9.132;2024-02-16T13:30:45;98211.56;;;17.75;61.69
15694;BME280;7947;48.834;9.132;2024-02-16T13:33:52;98210.91;;;17.78;61.51
15694;BME280;7947;48.834;9.132;2024-02-16T13:36:58;98214.91;;;17.80;61.33
15694;BME280;7947;48.834;9.132;2024-02-16T13:40:06;98215.22;;;17.79;60.80
15694;BME280;7947;48.834;9.132;2024-02-16T13:43:18;98213.31;;;17.79;59.90
15694;BME280;7947;48.834;9.132;2024-02-16T13:46:24;98219.88;;;17.78;59.42
15694;BME280;7947;48.834;9.132;2024-02-16T13:49:27;98211.72;;;17.78;59.79
15694;BME280;7947;48.834;9.132;2024-02-16T13:52:32;98226.25;;;17.74;60.86
15694;BME280;7947;48.834;9.132;2024-02-16T13:55:40;98222.88;;;17.77;60.54
15694;BME280;7947;48.834;9.132;2024-02-16T13:58:45;98222.56;;;17.95;59.67
15694;BME280;7947;48.834;9.132;2024-02-16T14:01:50;98230.06;;;17.81;60.09
15694;BME280;7947;48.834;9.132;2024-02-16T14:04:57;98233.56;;;17.73;60.81
15694;BME280;7947;48.834;9.132;2024-02-16T14:08:07;98233.91;;;17.72;60.14
15694;BME280;7947;48.834;9.132;2024-02-16T14:11:27;98244.56;;;17.60;61.13
15694;BME280;7947;48.834;9.132;2024-02-16T14:14:32;98242.03;;;17.63;60.73
15694;BME280;7947;48.834;9.132;2024-02-16T14:17:41;98243.56;;;17.47;62.56
15694;BME280;7947;48.834;9.132;2024-02-16T14:20:54;98252.00;;;17.37;63.08
15694;BME280;7947;48.834;9.132;2024-02-16T14:23:59;98258.53;;;17.45;62.70
15694;BME280;7947;48.834;9.132;2024-02-16T14:27:05;98258.72;;;17.40;63.11
15694;BME280;7947;48.834;9.132;2024-02-16T14:30:11;98259.47;;;17.32;63.22
15694;BME280;7947;48.834;9.132;2024-02-16T14:33:20;98260.91;;;17.29;63.96
15694;BME280;7947;48.834;9.132;2024-02-16T14:37:13;98258.50;;;17.28;63.58
15694;BME280;7947;48.834;9.132;2024-02-16T14:40:49;98261.34;;;17.14;63.46
15694;BME280;7947;48.834;9.132;2024-02-16T14:45:05;98267.66;;;17.01;63.93
15694;BME280;7947;48.834;9.132;2024-02-16T14:49:07;98277.38;;;17.02;63.92
15694;BME280;7947;48.834;9.132;2024-02-16T14:53:00;98275.66;;;17.06;65.10
15694;BME280;7947;48.834;9.132;2024-02-16T14:56:30;98275.91;;;16.96;65.09
15694;BME280;7947;48.834;9.132;2024-02-16T15:03:38;98280.56;;;16.95;65.15
15694;BME280;7947;48.834;9.132;2024-02-16T15:07:26;98277.16;;;16.90;65.57
15694;BME280;7947;48.834;9.132;2024-02-16T15:10:33;98278.91;;;16.86;66.24
15694;BME280;7947;48.834;9.132;2024-02-16T15:14:15;98278.22;;;16.80;66.56
15694;BME280;7947;48.834;9.132;2024-02-16T15:17:42;98277.13;;;16.81;67.34
15694;BME280;7947;48.834;9.132;2024-02-16T15:21:43;98287.13;;;16.72;67.27
15694;BME280;7947;48.834;9.132;2024-02-16T15:25:35;98292.34;;;16.69;68.06
15694;BME280;7947;48.834;9.132;2024-02-16T15:29:40;98304.13;;;16.64;67.94
15694;BME280;7947;48.834;9.132;2024-02-16T15:33:48;98302.19;;;16.65;68.02
15694;BME280;7947;48.834;9.132;2024-02-16T15:41:10;98313.72;;;16.48;69.10
15694;BME280;7947;48.834;9.132;2024-02-16T15:44:36;98316.91;;;16.50;69.33
15694;BME280;7947;48.834;9.132;2024-02-16T15:47:57;98328.28;;;16.39;70.08
15694;BME280;7947;48.834;9.132;2024-02-16T15:51:01;98328.88;;;16.36;70.35
15694;BME280;7947;48.834;9.132;2024-02-16T15:54:10;98331.88;;;16.34;69.71
15694;BME280;7947;48.834;9.132;2024-02-16T15:57:22;98329.72;;;16.22;69.64
15694;BME280;7947;48.834;9.132;2024-02-16T16:00:28;98339.38;;;16.15;70.72
15694;BME280;7947;48.834;9.132;2024-02-16T16:03:32;98346.41;;;16.16;70.49
15694;BME280;7947;48.834;9.132;2024-02-16T16:06:36;98345.44;;;15.98;71.66
15694;BME280;7947;48.834;9.132;2024-02-16T16:09:44;98352.56;;;15.94;71.75
15694;BME280;7947;48.834;9.132;2024-02-16T16:12:56;98349.44;;;15.87;71.96
15694;BME280;7947;48.834;9.132;2024-02-16T16:16:05;98362.19;;;15.87;72.76
15694;BME280;7947;48.834;9.132;2024-02-16T16:19:13;98360.59;;;15.86;71.87
15694;BME280;7947;48.834;9.132;2024-02-16T16:22:37;98367.50;;;15.78;72.61
15694;BME280;7947;48.834;9.132;2024-02-16T16:25:48;98364.72;;;15.70;73.13
15694;BME280;7947;48.834;9.132;2024-02-16T16:29:04;98371.63;;;15.62;73.98
15694;BME280;7947;48.834;9.132;2024-02-16T16:32:11;98367.81;;;15.63;73.87
15694;BME280;7947;48.834;9.132;2024-02-16T16:35:20;98368.22;;;15.57;74.95
15694;BME280;7947;48.834;9.132;2024-02-16T16:38:26;98373.53;;;15.48;75.58
15694;BME280;7947;48.834;9.132;2024-02-16T16:41:33;98382.53;;;15.44;76.14
15694;BME280;7947;48.834;9.132;2024-02-16T16:44:40;98385.31;;;15.38;76.13
15694;BME280;7947;48.834;9.132;2024-02-16T16:47:46;98384.50;;;15.38;76.70
15694;BME280;7947;48.834;9.132;2024-02-16T16:50:50;98390.72;;;15.38;75.42